Time;durP1;ratioP1;P1;durP2;ratioP2;P2;SDS_P1;SDS_P2;PMS_P1;PMS_P2;Temp;Humidity;BMP_temperature;BMP_pressure;BME280_temperature;BME280_humidity;BME280_pressure;Samples;Min_cycle;Max_cycle;Signal;HPM_P1;HPM_P2
2021/07/25 00:01:43;;;;;;;0.40;0.20;;;22.10;17.80;;;;;;4959259;29;20610;-66
2021/07/25 00:04:09;;;;;;;0.73;0.73;;;22.00;1.00;;;;;;4959198;29;20207;-65
2021/07/25 00:06:35;;;;;;;0.50;0.37;;;22.00;1.00;;;;;;4958962;29;20215;-66
2021/07/25 00:09:00;;;;;;;0.70;0.70;;;22.00;1.00;;;;;;4959040;29;20428;-65
2021/07/25 00:11:27;;;;;;;1.13;1.03;;;21.90;1.00;;;;;;4959337;29;20176;-65
2021/07/25 00:13:54;;;;;;;0.50;0.40;;;21.80;1.00;;;;;;4959135;29;20188;-65
2021/07/25 00:16:20;;;;;;;3.70;1.80;;;21.90;1.00;;;;;;4959094;29;20582;-66
2021/07/25 00:18:46;;;;;;;0.67;0.33;;;21.90;1.00;;;;;;4958199;29;20872;-65
2021/07/25 00:21:12;;;;;;;2.10;1.33;;;21.80;1.00;;;;;;4958816;29;20440;-63
2021/07/25 00:23:43;;;;;;;9.43;3.07;;;21.70;1.00;;;;;;4957649;28;20185;-64
2021/07/25 00:26:13;;;;;;;1.00;0.90;;;21.70;1.00;;;;;;4958545;29;20614;-65
2021/07/25 00:28:39;;;;;;;2.27;1.37;;;21.70;1.00;;;;;;4958596;29;20438;-66
2021/07/25 00:31:05;;;;;;;0.80;0.80;;;21.70;1.00;;;;;;4941636;29;20454;-65
2021/07/25 00:33:32;;;;;;;4.13;3.83;;;21.70;1.00;;;;;;4958545;29;20424;-66
2021/07/25 00:35:59;;;;;;;1.57;1.47;;;21.70;1.00;;;;;;4958561;29;20506;-63
2021/07/25 00:38:25;;;;;;;1.43;1.07;;;21.90;1.00;;;;;;4958497;29;20435;-63
2021/07/25 00:40:55;;;;;;;1.90;1.80;;;21.90;1.00;;;;;;4958498;29;20487;-66
2021/07/25 00:43:26;;;;;;;3.10;2.57;;;21.90;1.00;;;;;;4941653;29;20237;-64
2021/07/25 00:45:52;;;;;;;1.27;1.07;;;21.70;1.00;;;;;;4958344;29;20867;-63
2021/07/25 00:48:18;;;;;;;3.33;1.63;;;21.60;1.00;;;;;;4958110;29;20447;-65
2021/07/25 00:50:43;;;;;;;4.10;3.80;;;21.50;1.00;;;;;;4958094;29;20925;-66
2021/07/25 00:53:09;;;;;;;0.50;0.40;;;21.40;1.00;;;;;;4958154;29;20180;-65
2021/07/25 00:55:36;;;;;;;1.17;0.67;;;21.30;1.00;;;;;;4958031;29;20173;-63
2021/07/25 00:58:02;;;;;;;4.93;2.90;;;21.30;1.50;;;;;;4941062;29;20450;-63
2021/07/25 01:00:30;;;;;;;0.60;0.50;;;21.20;11.00;;;;;;4957931;29;20428;-63
2021/07/25 01:03:23;;;;;;;0.40;0.17;;;21.40;10.10;;;;;;4958123;29;20180;-63
2021/07/25 01:06:10;;;;;;;0.40;0.10;;;21.50;1.00;;;;;;4958139;29;20475;-64
2021/07/25 01:08:59;;;;;;;2.57;1.43;;;21.40;8.20;;;;;;4940866;29;20920;-65
2021/07/25 01:11:36;;;;;;;0.87;0.60;;;21.20;25.70;;;;;;4958158;29;20439;-63
2021/07/25 01:14:03;;;;;;;0.50;0.33;;;21.20;84.50;;;;;;4958217;29;20463;-64
2021/07/25 01:16:31;;;;;;;0.50;0.30;;;21.20;99.90;;;;;;4957788;29;20428;-64
2021/07/25 01:18:57;;;;;;;2.00;1.33;;;21.10;99.90;;;;;;4957650;29;20487;-64
2021/07/25 01:21:23;;;;;;;0.50;0.30;;;21.20;99.90;;;;;;4957764;29;20428;-64
2021/07/25 01:23:49;;;;;;;0.50;0.30;;;21.10;99.90;;;;;;4957609;29;20544;-64
2021/07/25 01:26:20;;;;;;;0.63;0.63;;;21.30;99.90;;;;;;4957664;29;20211;-63
2021/07/25 01:28:49;;;;;;;0.40;0.20;;;21.30;92.10;;;;;;4957489;29;20423;-64
2021/07/25 01:31:19;;;;;;;0.40;0.10;;;21.20;80.70;;;;;;4957588;29;20423;-64
2021/07/25 01:33:48;;;;;;;1.73;1.47;;;21.30;99.90;;;;;;4940471;29;20427;-64
2021/07/25 01:36:14;;;;;;;0.40;0.20;;;21.20;99.90;;;;;;4957226;28;20465;-64
2021/07/25 01:38:40;;;;;;;0.50;0.30;;;21.20;99.90;;;;;;4957156;29;20777;-64
2021/07/25 01:41:07;;;;;;;0.40;0.20;;;21.30;99.90;;;;;;4957369;29;20428;-64
2021/07/25 01:43:35;;;;;;;0.53;0.43;;;21.30;99.90;;;;;;4957469;29;20431;-64
2021/07/25 01:46:00;;;;;;;1.70;1.60;;;21.30;95.60;;;;;;4940131;29;20510;-64
2021/07/25 01:48:26;;;;;;;1.33;0.87;;;21.10;99.90;;;;;;4956982;29;20432;-64
2021/07/25 01:50:52;;;;;;;0.43;0.20;;;20.80;99.90;;;;;;4957167;29;20616;-64
2021/07/25 01:53:17;;;;;;;1.33;1.23;;;20.90;99.90;;;;;;4956888;29;20267;-64
2021/07/25 01:55:43;;;;;;;0.43;0.20;;;21.00;99.90;;;;;;4956881;29;20176;-64
2021/07/25 01:58:09;;;;;;;1.37;1.30;;;21.00;99.90;;;;;;4956292;29;20184;-64
2021/07/25 02:00:34;;;;;;;0.80;0.67;;;21.10;99.90;;;;;;4956617;29;20427;-65
2021/07/25 02:03:00;;;;;;;2.23;2.13;;;20.90;99.90;;;;;;4956583;29;20195;-64
2021/07/25 02:05:26;;;;;;;1.47;0.60;;;20.90;99.90;;;;;;4956197;29;20263;-66
2021/07/25 02:07:51;;;;;;;0.67;0.67;;;20.80;99.90;;;;;;4956394;29;20184;-64
2021/07/25 02:10:17;;;;;;;0.60;0.50;;;20.80;99.90;;;;;;4956530;29;20176;-64
2021/07/25 02:12:43;;;;;;;0.80;0.80;;;20.70;99.90;;;;;;4956140;29;20572;-65
2021/07/25 02:15:12;;;;;;;0.40;0.20;;;20.70;99.90;;;;;;4956577;29;20184;-64
2021/07/25 02:17:37;;;;;;;0.60;0.37;;;20.70;99.90;;;;;;4939046;29;20180;-63
2021/07/25 02:20:04;;;;;;;3.53;2.43;;;20.70;99.90;;;;;;4955973;29;20933;-65
2021/07/25 02:22:29;;;;;;;0.50;0.20;;;20.70;99.90;;;;;;4956119;29;20614;-64
2021/07/25 02:24:55;;;;;;;3.50;1.37;;;20.60;99.90;;;;;;4955943;29;20423;-64
2021/07/25 02:27:20;;;;;;;0.40;0.20;;;20.70;99.90;;;;;;4955867;29;20516;-66
2021/07/25 02:29:46;;;;;;;5.30;4.90;;;20.70;99.90;;;;;;4955947;29;20180;-66
2021/07/25 02:32:11;;;;;;;1.70;1.53;;;20.70;99.90;;;;;;4955994;29;20267;-65
2021/07/25 02:34:38;;;;;;;0.73;0.60;;;20.60;99.90;;;;;;4955890;29;20172;-65
2021/07/25 02:37:05;;;;;;;1.60;1.30;;;20.50;99.90;;;;;;4956195;29;20187;-66
2021/07/25 02:39:30;;;;;;;5.23;4.93;;;20.60;99.90;;;;;;4938771;29;20778;-65
2021/07/25 02:41:56;;;;;;;0.40;0.20;;;20.40;99.90;;;;;;4955808;29;20908;-64
2021/07/25 02:44:22;;;;;;;4.27;3.97;;;20.40;99.90;;;;;;4955761;29;20188;-64
2021/07/25 02:46:47;;;;;;;2.00;1.47;;;20.40;99.90;;;;;;4955120;28;20654;-65
2021/07/25 02:49:13;;;;;;;0.40;0.17;;;20.40;99.90;;;;;;4955596;29;20529;-65
2021/07/25 02:51:39;;;;;;;0.40;0.20;;;20.40;99.90;;;;;;4955635;29;20308;-65
2021/07/25 02:54:04;;;;;;;0.93;0.93;;;20.40;99.90;;;;;;4938760;29;20184;-65
2021/07/25 02:56:30;;;;;;;6.70;2.40;;;20.60;99.90;;;;;;4955672;29;20198;-66
2021/07/25 02:58:55;;;;;;;4.00;1.00;;;20.50;99.90;;;;;;4955264;29;20176;-64
2021/07/25 03:01:21;;;;;;;0.60;0.30;;;20.60;99.90;;;;;;4955572;29;20640;-64
2021/07/25 03:03:47;;;;;;;0.63;0.50;;;20.60;99.90;;;;;;4955528;29;20255;-64
2021/07/25 03:06:12;;;;;;;0.60;0.30;;;20.70;99.90;;;;;;4938296;29;20315;-64
2021/07/25 03:08:38;;;;;;;0.47;0.20;;;20.60;99.90;;;;;;4955267;29;20187;-64
2021/07/25 03:11:09;;;;;;;1.27;1.17;;;20.60;99.90;;;;;;4955635;29;20183;-66
2021/07/25 03:13:35;;;;;;;0.70;0.63;;;20.70;99.90;;;;;;4955636;29;20236;-66
2021/07/25 03:16:02;;;;;;;0.60;0.47;;;20.70;99.90;;;;;;4955610;29;20445;-66
2021/07/25 03:18:28;;;;;;;0.40;0.17;;;20.70;99.90;;;;;;4955139;29;20420;-66
2021/07/25 03:20:53;;;;;;;0.53;0.53;;;20.60;99.90;;;;;;4955388;29;20462;-66
2021/07/25 03:23:19;;;;;;;2.20;1.37;;;20.60;99.90;;;;;;4955364;29;20188;-66
2021/07/25 03:25:44;;;;;;;0.50;0.30;;;20.50;99.90;;;;;;4955347;29;20215;-64
2021/07/25 03:28:10;;;;;;;0.60;0.40;;;20.50;99.90;;;;;;4955145;29;20312;-66
2021/07/25 03:30:35;;;;;;;0.50;0.20;;;20.50;99.90;;;;;;4955288;29;20510;-67
2021/07/25 03:33:01;;;;;;;2.50;2.30;;;20.50;99.90;;;;;;4955068;29;20579;-64
2021/07/25 03:35:27;;;;;;;0.43;0.20;;;20.50;99.90;;;;;;4955262;29;20184;-66
2021/07/25 03:37:52;;;;;;;0.50;0.43;;;20.60;99.90;;;;;;4955295;29;20284;-64
2021/07/25 03:40:18;;;;;;;0.80;0.80;;;20.60;99.90;;;;;;4955110;29;20181;-64
2021/07/25 03:42:44;;;;;;;0.93;0.93;;;20.70;99.90;;;;;;4955183;29;20211;-64
2021/07/25 03:45:10;;;;;;;0.40;0.20;;;20.60;99.90;;;;;;4955601;29;20442;-66
2021/07/25 03:47:38;;;;;;;1.63;0.60;;;20.60;99.90;;;;;;4955035;29;20191;-64
2021/07/25 03:50:07;;;;;;;0.40;0.20;;;20.70;99.90;;;;;;4954936;29;20176;-64
2021/07/25 03:52:35;;;;;;;0.60;0.20;;;20.60;99.90;;;;;;4955104;29;20941;-64
2021/07/25 03:55:02;;;;;;;0.70;0.60;;;20.70;99.90;;;;;;4955081;29;20420;-64
2021/07/25 03:57:30;;;;;;;1.67;1.57;;;20.70;99.90;;;;;;4955192;28;20454;-64
2021/07/25 03:59:58;;;;;;;1.67;1.37;;;20.60;99.90;;;;;;4958474;29;20419;-66
2021/07/25 04:02:24;;;;;;;0.50;0.30;;;20.50;99.90;;;;;;4958414;29;20769;-64
2021/07/25 04:04:49;;;;;;;1.83;1.20;;;20.50;99.90;;;;;;4958467;29;20423;-66
2021/07/25 04:07:15;;;;;;;4.73;2.33;;;20.50;99.90;;;;;;4958429;29;20220;-66
2021/07/25 04:09:41;;;;;;;5.30;3.80;;;20.30;99.90;;;;;;4958313;29;20505;-65
2021/07/25 04:12:07;;;;;;;1.87;1.27;;;20.30;99.90;;;;;;4958435;29;20206;-64
2021/07/25 04:14:32;;;;;;;0.77;0.57;;;20.30;99.90;;;;;;4958436;29;20180;-64
2021/07/25 04:16:58;;;;;;;7.07;3.50;;;20.30;99.90;;;;;;4958177;29;20432;-65
2021/07/25 04:19:23;;;;;;;5.10;2.77;;;20.30;99.90;;;;;;4958334;29;20630;-64
2021/07/25 04:21:49;;;;;;;0.50;0.30;;;20.40;99.90;;;;;;4941401;29;20199;-66
2021/07/25 04:24:15;;;;;;;1.00;0.80;;;20.40;99.90;;;;;;4958332;29;20184;-67
2021/07/25 04:26:40;;;;;;;3.13;2.00;;;20.30;99.90;;;;;;4957997;29;20208;-64
2021/07/25 04:29:06;;;;;;;0.50;0.47;;;20.20;99.90;;;;;;4958153;29;20176;-64
2021/07/25 04:31:32;;;;;;;1.43;0.80;;;20.20;99.90;;;;;;4957906;29;20832;-66
2021/07/25 04:33:59;;;;;;;4.97;2.33;;;20.30;99.90;;;;;;4958201;29;20756;-65
2021/07/25 04:36:29;;;;;;;1.17;0.80;;;20.40;99.90;;;;;;4957970;29;20436;-66
2021/07/25 04:38:56;;;;;;;1.60;1.50;;;20.50;99.90;;;;;;4940770;29;20973;-65
2021/07/25 04:41:25;;;;;;;0.97;0.90;;;20.40;99.90;;;;;;4957917;29;20731;-65
2021/07/25 04:44:05;;;;;;;0.50;0.30;;;20.40;99.90;;;;;;4957965;29;20447;-64
2021/07/25 04:46:34;;;;;;;0.50;0.40;;;20.50;99.90;;;;;;4957687;29;20514;-65
2021/07/25 04:49:07;;;;;;;0.40;0.20;;;20.70;99.90;;;;;;4957617;29;20431;-67
2021/07/25 04:51:36;;;;;;;2.30;1.80;;;20.90;99.90;;;;;;4957815;29;20463;-64
2021/07/25 04:54:13;;;;;;;1.30;1.17;;;21.20;99.90;;;;;;4957798;29;20436;-65
2021/07/25 04:59:44;;;;;;;3.30;3.10;;;21.30;99.90;;;;;;4957518;29;20428;-66
2021/07/25 05:02:11;;;;;;;0.73;0.60;;;22.20;99.90;;;;;;4957497;29;20464;-63
2021/07/25 05:04:37;;;;;;;0.70;0.70;;;22.60;30.00;;;;;;4957379;29;20454;-63
2021/07/25 05:07:11;;;;;;;3.23;3.03;;;24.00;1.00;;;;;;4957197;29;20944;-63
2021/07/25 05:09:38;;;;;;;0.50;0.40;;;25.40;1.00;;;;;;4956942;28;20190;-63
2021/07/25 05:12:22;;;;;;;1.13;1.03;;;26.60;99.90;;;;;;4957398;29;20959;-67
2021/07/25 05:14:59;;;;;;;0.50;0.40;;;27.30;99.90;;;;;;4957321;29;20523;-66
2021/07/25 05:17:30;;;;;;;0.40;0.20;;;27.40;1.00;;;;;;4956939;29;20428;-64
2021/07/25 05:20:01;;;;;;;0.50;0.20;;;28.00;1.00;;;;;;4939810;29;20538;-64
2021/07/25 05:22:26;;;;;;;4.73;4.43;;;27.60;50.00;;;;;;4940350;29;20472;-65
2021/07/25 05:24:53;;;;;;;0.40;0.20;;;26.90;99.90;;;;;;4940674;29;20442;-66
2021/07/25 05:27:21;;;;;;;1.40;1.27;;;27.10;1.00;;;;;;4956794;29;20244;-64
2021/07/25 05:29:48;;;;;;;4.90;4.50;;;27.60;1.00;;;;;;4957112;29;20643;-64
2021/07/25 05:32:15;;;;;;;1.03;1.03;;;27.70;1.00;;;;;;4957124;29;20427;-66
2021/07/25 05:34:40;;;;;;;0.60;0.50;;;27.30;1.00;;;;;;4957062;29;20519;-67
2021/07/25 05:37:06;;;;;;;19.53;4.20;;;28.40;1.00;;;;;;4956835;29;20514;-64
2021/07/25 05:39:34;;;;;;;0.50;0.30;;;28.30;99.90;;;;;;4957017;29;20276;-67
2021/07/25 05:42:00;;;;;;;0.50;0.40;;;29.40;99.90;;;;;;4957183;29;20231;-67
2021/07/25 05:44:27;;;;;;;0.60;0.30;;;30.60;1.00;;;;;;4956783;29;20913;-66
2021/07/25 05:46:52;;;;;;;0.90;0.90;;;31.20;1.00;;;;;;4956821;29;20326;-64
2021/07/25 05:49:24;;;;;;;2.10;1.90;;;30.20;1.00;;;;;;4956708;29;20940;-64
2021/07/25 05:51:52;;;;;;;0.50;0.20;;;28.20;99.90;;;;;;4956739;29;20200;-66
2021/07/25 05:54:18;;;;;;;0.50;0.20;;;28.50;99.90;;;;;;4956625;29;20976;-65
2021/07/25 05:56:43;;;;;;;2.97;2.73;;;29.20;99.90;;;;;;4956560;29;20534;-67
2021/07/25 05:59:12;;;;;;;3.10;2.67;;;29.10;22.00;;;;;;4956571;29;20207;-65
2021/07/25 06:01:39;;;;;;;3.87;2.10;;;28.30;99.90;;;;;;4956529;29;20200;-64
2021/07/25 06:04:06;;;;;;;0.50;0.30;;;28.10;99.90;;;;;;4956549;29;20515;-64
2021/07/25 06:06:32;;;;;;;3.10;2.27;;;28.40;99.90;;;;;;4956277;29;20486;-64
2021/07/25 06:08:57;;;;;;;6.73;5.37;;;28.30;99.90;;;;;;4956199;29;20511;-67
2021/07/25 06:11:24;;;;;;;1.50;1.20;;;28.80;99.90;;;;;;4956357;29;20518;-66
2021/07/25 06:13:51;;;;;;;0.47;0.20;;;29.70;10.90;;;;;;4951597;28;20688;-65
2021/07/25 06:16:17;;;;;;;0.77;0.77;;;29.80;1.00;;;;;;4975453;28;20497;-65
2021/07/25 06:18:45;;;;;;;0.70;0.40;;;30.70;1.00;;;;;;4975267;28;20435;-65
2021/07/25 06:21:12;;;;;;;0.60;0.33;;;30.80;1.00;;;;;;4974987;28;20449;-66
2021/07/25 06:23:38;;;;;;;2.37;2.17;;;30.50;1.00;;;;;;4975343;28;20439;-66
2021/07/25 06:26:04;;;;;;;0.47;0.30;;;28.50;29.20;;;;;;4975216;28;20551;-66
2021/07/25 06:28:29;;;;;;;2.03;1.30;;;28.50;99.90;;;;;;4958281;28;20180;-66
2021/07/25 06:30:55;;;;;;;0.60;0.40;;;29.30;50.10;;;;;;4975461;28;20628;-64
2021/07/25 06:33:20;;;;;;;2.80;2.70;;;28.30;99.90;;;;;;4975346;28;20223;-64
2021/07/25 06:35:46;;;;;;;0.50;0.37;;;28.90;99.90;;;;;;4975386;28;20186;-66
2021/07/25 06:38:13;;;;;;;0.50;0.20;;;30.20;1.00;;;;;;4974975;28;20183;-67
2021/07/25 06:40:45;;;;;;;0.90;0.90;;;30.60;1.00;;;;;;4975326;28;20202;-67
2021/07/25 06:43:11;;;;;;;1.80;1.03;;;31.40;1.00;;;;;;4975088;28;20435;-68
2021/07/25 06:45:36;;;;;;;0.87;0.87;;;31.20;1.00;;;;;;4974694;28;20463;-67
2021/07/25 06:48:02;;;;;;;0.50;0.20;;;29.70;1.00;;;;;;4975134;28;20445;-67
2021/07/25 06:50:29;;;;;;;0.83;0.40;;;30.80;1.00;;;;;;4974975;28;20222;-68
2021/07/25 06:52:56;;;;;;;1.30;1.10;;;31.80;1.00;;;;;;4974880;28;20427;-68
2021/07/25 06:55:25;;;;;;;0.50;0.20;;;31.70;1.00;;;;;;4974853;28;20450;-67
2021/07/25 06:57:51;;;;;;;3.13;2.43;;;30.60;1.00;;;;;;4974917;28;20438;-67
2021/07/25 07:00:17;;;;;;;0.50;0.30;;;29.90;1.00;;;;;;4974966;28;20427;-67
2021/07/25 07:02:52;;;;;;;4.57;2.90;;;29.80;1.00;;;;;;4974922;28;20530;-67
2021/07/25 07:05:20;;;;;;;0.90;0.50;;;28.80;9.80;;;;;;4974714;28;20589;-67
2021/07/25 07:07:47;;;;;;;1.47;1.37;;;28.90;55.20;;;;;;4974704;28;20441;-68
2021/07/25 07:10:13;;;;;;;2.43;2.23;;;28.70;48.40;;;;;;4975288;28;20431;-67
2021/07/25 07:12:39;;;;;;;1.47;1.03;;;27.50;99.90;;;;;;4974943;28;20478;-68
2021/07/25 07:15:07;;;;;;;0.80;0.60;;;26.50;99.90;;;;;;4975323;28;20517;-68
2021/07/25 07:17:32;;;;;;;3.10;2.00;;;25.70;99.90;;;;;;4974819;28;20652;-68
2021/07/25 07:19:58;;;;;;;0.50;0.20;;;25.40;1.00;;;;;;4974973;28;20427;-67
2021/07/25 07:22:28;;;;;;;2.30;1.90;;;26.20;99.90;;;;;;4975094;28;20389;-67
2021/07/25 07:24:55;;;;;;;5.90;5.50;;;26.70;99.90;;;;;;4975275;28;20175;-67
2021/07/25 07:27:24;;;;;;;1.23;1.00;;;27.90;1.00;;;;;;4958194;28;20466;-67
2021/07/25 07:29:51;;;;;;;0.50;0.20;;;29.70;1.00;;;;;;4957955;28;20450;-68
2021/07/25 07:32:16;;;;;;;0.90;0.60;;;30.50;1.00;;;;;;4975208;28;20427;-68
2021/07/25 07:34:42;;;;;;;1.83;1.73;;;31.00;1.00;;;;;;4978808;28;20460;-68
2021/07/25 07:37:07;;;;;;;1.73;1.53;;;32.90;1.00;;;;;;4979003;28;20722;-68
2021/07/25 07:39:36;;;;;;;0.90;0.70;;;33.30;1.00;;;;;;4978846;28;20520;-68
2021/07/25 07:42:02;;;;;;;1.93;1.83;;;32.20;1.00;;;;;;4978990;28;20283;-68
2021/07/25 07:44:28;;;;;;;0.50;0.20;;;30.60;1.00;;;;;;4981089;28;20441;-68
2021/07/25 07:46:54;;;;;;;0.50;0.30;;;29.00;1.00;;;;;;4980601;28;20466;-68
2021/07/25 07:49:19;;;;;;;2.40;0.83;;;28.20;99.90;;;;;;4980161;28;20242;-67
2021/07/25 07:51:44;;;;;;;0.50;0.20;;;27.50;1.00;;;;;;4980334;28;20235;-67
2021/07/25 07:54:10;;;;;;;2.83;1.57;;;27.10;1.00;;;;;;4981091;28;20681;-67
2021/07/25 07:56:36;;;;;;;0.50;0.20;;;27.60;1.00;;;;;;4980668;28;20196;-68
2021/07/25 07:59:02;;;;;;;2.73;2.53;;;28.10;99.90;;;;;;4980057;28;20211;-68
2021/07/25 08:01:28;;;;;;;1.50;1.40;;;28.80;1.00;;;;;;4980222;28;20230;-68
2021/07/25 08:03:54;;;;;;;5.13;3.50;;;27.70;99.90;;;;;;4979471;28;20438;-68
2021/07/25 08:06:19;;;;;;;1.93;1.03;;;27.10;1.00;;;;;;4962339;28;20285;-67
2021/07/25 08:08:45;;;;;;;0.60;0.40;;;26.60;1.00;;;;;;4979048;28;20190;-68
2021/07/25 08:11:10;;;;;;;0.50;0.20;;;26.50;1.00;;;;;;4965695;28;20238;-70
2021/07/25 08:13:36;;;;;;;6.83;3.50;;;26.70;96.70;;;;;;4968310;28;20590;-70
2021/07/25 08:16:02;;;;;;;0.60;0.50;;;26.90;1.00;;;;;;4969972;28;20219;-70
2021/07/25 08:18:27;;;;;;;0.50;0.30;;;27.10;1.00;;;;;;4978155;28;20195;-69
2021/07/25 08:20:53;;;;;;;0.50;0.20;;;27.30;1.00;;;;;;4962522;28;20214;-69
2021/07/25 08:23:18;;;;;;;0.70;0.47;;;27.20;1.00;;;;;;4958573;29;20188;-69
2021/07/25 08:25:44;;;;;;;0.70;0.57;;;26.70;99.90;;;;;;4958568;29;20338;-68
2021/07/25 08:28:10;;;;;;;2.70;2.10;;;26.60;99.90;;;;;;4963390;28;20191;-68
2021/07/25 08:30:36;;;;;;;1.57;1.03;;;26.60;99.90;;;;;;4977490;28;20648;-69
2021/07/25 08:33:02;;;;;;;1.50;1.40;;;26.70;1.00;;;;;;4977529;28;20179;-68
2021/07/25 08:35:27;;;;;;;1.40;1.30;;;26.80;1.00;;;;;;4977729;28;20513;-68
2021/07/25 08:37:53;;;;;;;1.93;1.07;;;26.60;1.00;;;;;;4977444;28;20195;-69
2021/07/25 08:40:21;;;;;;;1.57;1.47;;;26.70;1.00;;;;;;4977181;28;20219;-69
2021/07/25 08:43:04;;;;;;;0.93;0.93;;;26.80;99.90;;;;;;4977286;28;20189;-69
2021/07/25 08:45:31;;;;;;;1.23;1.13;;;27.10;1.00;;;;;;4969304;28;20550;-71
2021/07/25 08:48:14;;;;;;;2.50;2.40;;;27.20;1.00;;;;;;4957740;29;20428;-69
2021/07/25 08:50:43;;;;;;;1.20;1.07;;;27.00;1.00;;;;;;4957697;29;20506;-68
2021/07/25 08:53:18;;;;;;;2.10;1.40;;;27.00;1.00;;;;;;4958026;29;20424;-68
2021/07/25 08:55:45;;;;;;;0.50;0.20;;;26.90;1.00;;;;;;4957679;29;20441;-68
2021/07/25 08:58:12;;;;;;;0.50;0.20;;;27.40;1.00;;;;;;4957503;29;20924;-67
2021/07/25 09:00:38;;;;;;;0.50;0.20;;;27.50;1.00;;;;;;4957670;29;20439;-67
2021/07/25 09:03:06;;;;;;;2.50;2.03;;;27.40;1.00;;;;;;4957654;29;20428;-68
2021/07/25 09:05:32;;;;;;;1.17;0.83;;;27.10;67.70;;;;;;4957630;29;20807;-69
2021/07/25 09:07:58;;;;;;;2.57;2.37;;;26.50;99.90;;;;;;4962543;28;20779;-69
2021/07/25 09:10:24;;;;;;;0.63;0.60;;;26.20;99.90;;;;;;4976730;28;20513;-68
2021/07/25 09:12:52;;;;;;;0.90;0.67;;;26.60;62.10;;;;;;4976807;28;20233;-69
2021/07/25 09:15:26;;;;;;;2.03;1.50;;;27.10;1.00;;;;;;4976707;28;20426;-70
2021/07/25 09:17:51;;;;;;;1.53;0.97;;;27.20;1.00;;;;;;4976792;28;20928;-70
2021/07/25 09:20:35;;;;;;;0.93;0.83;;;27.10;1.00;;;;;;4964416;28;20475;-69
2021/07/25 09:23:09;;;;;;;0.80;0.73;;;27.20;1.00;;;;;;4957334;29;20168;-69
2021/07/25 09:25:51;;;;;;;3.53;3.20;;;27.10;1.00;;;;;;4940210;29;20797;-69
2021/07/25 09:28:37;;;;;;;1.17;1.17;;;26.90;1.00;;;;;;4957211;29;20753;-66
2021/07/25 09:31:15;;;;;;;0.50;0.20;;;27.20;1.00;;;;;;4975334;28;20448;-67
2021/07/25 09:33:45;;;;;;;0.50;0.20;;;27.50;99.90;;;;;;4976844;28;20518;-68
2021/07/25 09:36:17;;;;;;;4.60;2.43;;;27.80;99.90;;;;;;4976241;28;20800;-70
2021/07/25 09:38:44;;;;;;;1.47;1.13;;;27.80;99.90;;;;;;4958831;28;20516;-67
2021/07/25 09:41:22;;;;;;;0.87;0.87;;;27.40;99.90;;;;;;4976279;28;20520;-68
2021/07/25 09:44:00;;;;;;;0.60;0.47;;;27.30;1.00;;;;;;4932094;29;20536;-68
2021/07/25 09:46:26;;;;;;;0.50;0.20;;;27.80;99.90;;;;;;4927544;29;20506;-67
2021/07/25 09:48:57;;;;;;;0.50;0.30;;;27.90;99.90;;;;;;4956793;29;20428;-67
2021/07/25 09:51:23;;;;;;;0.50;0.17;;;28.10;99.90;;;;;;4944129;29;20491;-66
2021/07/25 09:53:53;;;;;;;0.70;0.30;;;28.30;99.90;;;;;;4936793;29;20898;-70
2021/07/25 09:56:23;;;;;;;0.50;0.10;;;28.50;31.00;;;;;;4942909;28;20446;-64
2021/07/25 09:58:50;;;;;;;1.20;1.10;;;28.70;1.00;;;;;;4955943;29;20428;-67
2021/07/25 10:01:36;;;;;;;0.50;0.20;;;28.80;1.00;;;;;;4956380;29;20524;-67
2021/07/25 10:04:13;;;;;;;0.50;0.20;;;28.50;1.00;;;;;;4949121;28;20452;-64
2021/07/25 10:06:40;;;;;;;1.37;1.00;;;28.30;1.00;;;;;;4959427;28;20483;-68
2021/07/25 10:09:17;;;;;;;0.97;0.63;;;28.40;1.00;;;;;;4956408;29;20779;-67
2021/07/25 10:11:49;;;;;;;2.07;1.03;;;28.50;1.00;;;;;;4939399;29;20493;-66
2021/07/25 10:14:17;;;;;;;2.40;2.20;;;28.60;1.00;;;;;;4956515;29;20738;-67
2021/07/25 10:16:44;;;;;;;0.50;0.30;;;28.80;1.00;;;;;;4945838;29;20472;-66
2021/07/25 10:19:11;;;;;;;0.50;0.10;;;28.80;1.00;;;;;;4940273;29;20446;-66
2021/07/25 10:21:37;;;;;;;0.50;0.27;;;29.00;1.00;;;;;;4955980;29;20476;-66
2021/07/25 10:24:04;;;;;;;0.50;0.20;;;29.40;1.00;;;;;;4939280;29;20447;-70
2021/07/25 10:26:29;;;;;;;1.80;1.70;;;29.30;1.00;;;;;;4955721;29;20482;-70
2021/07/25 10:28:57;;;;;;;1.10;1.00;;;29.30;1.00;;;;;;4938939;29;20420;-69
2021/07/25 10:31:26;;;;;;;1.47;1.33;;;29.00;1.00;;;;;;4955853;29;20338;-69
2021/07/25 10:33:52;;;;;;;0.60;0.40;;;28.50;1.00;;;;;;4955277;29;20765;-70
2021/07/25 10:36:19;;;;;;;1.13;0.77;;;28.00;99.90;;;;;;4956056;29;20463;-69
2021/07/25 10:38:49;;;;;;;0.57;0.40;;;28.10;99.90;;;;;;4955504;28;20798;-64
2021/07/25 10:41:19;;;;;;;1.70;1.20;;;27.80;1.00;;;;;;4955695;29;20436;-64
2021/07/25 10:43:45;;;;;;;0.60;0.20;;;27.60;1.00;;;;;;4955646;29;20427;-64
2021/07/25 10:46:14;;;;;;;1.43;1.03;;;27.40;1.00;;;;;;4951880;28;20468;-63
2021/07/25 10:49:00;;;;;;;0.50;0.23;;;27.50;1.00;;;;;;4955357;28;20203;-66
2021/07/25 10:51:26;;;;;;;2.17;1.97;;;27.80;1.00;;;;;;4946014;28;20761;-65
2021/07/25 10:54:10;;;;;;;0.90;0.73;;;27.90;99.90;;;;;;4955497;29;20427;-66
2021/07/25 10:57:06;;;;;;;1.90;1.80;;;27.90;99.90;;;;;;4958298;28;20481;-68
2021/07/25 10:59:55;;;;;;;1.43;1.23;;;28.00;99.90;;;;;;4964299;28;20451;-68
2021/07/25 11:02:26;;;;;;;1.27;1.03;;;28.10;99.90;;;;;;4948833;28;20506;-66
2021/07/25 11:04:55;;;;;;;0.50;0.20;;;28.30;99.90;;;;;;4965492;28;20432;-69
2021/07/25 11:07:24;;;;;;;3.50;0.50;;;28.30;95.30;;;;;;4962869;28;20930;-67
2021/07/25 11:09:59;;;;;;;1.33;1.23;;;28.30;99.90;;;;;;4964967;28;20920;-67
2021/07/25 11:12:26;;;;;;;2.27;2.10;;;28.40;71.90;;;;;;4957060;28;20943;-65
2021/07/25 11:14:59;;;;;;;0.70;0.60;;;28.30;99.90;;;;;;4965613;28;20435;-65
2021/07/25 11:17:44;;;;;;;1.33;1.23;;;28.30;99.90;;;;;;4965909;28;20513;-65
2021/07/25 11:20:40;;;;;;;1.43;1.03;;;28.10;99.90;;;;;;4961484;28;20483;-68
2021/07/25 11:23:11;;;;;;;2.93;1.07;;;28.30;99.90;;;;;;4965262;28;20422;-66
2021/07/25 11:25:37;;;;;;;1.40;0.73;;;28.40;99.90;;;;;;4963318;28;20817;-65
2021/07/25 11:28:08;;;;;;;0.70;0.57;;;28.60;47.70;;;;;;4955038;29;20503;-64
2021/07/25 11:30:49;;;;;;;0.60;0.30;;;28.00;99.90;;;;;;4955620;29;20431;-65
2021/07/25 11:33:37;;;;;;;3.73;1.40;;;27.50;99.90;;;;;;4963907;28;20457;-67
2021/07/25 11:36:03;;;;;;;4.63;2.73;;;27.90;99.90;;;;;;4965599;28;20440;-66
2021/07/25 11:38:30;;;;;;;0.83;0.83;;;28.20;99.90;;;;;;4964186;28;20423;-65
2021/07/25 11:40:56;;;;;;;0.50;0.20;;;28.20;97.10;;;;;;4948956;28;20431;-67
2021/07/25 11:43:21;;;;;;;0.57;0.37;;;28.30;98.50;;;;;;4946487;29;20434;-65
2021/07/25 11:45:47;;;;;;;1.03;0.93;;;28.20;64.00;;;;;;4954455;28;20239;-66
2021/07/25 11:48:23;;;;;;;0.50;0.20;;;28.00;90.70;;;;;;4963867;28;20524;-65
2021/07/25 11:50:49;;;;;;;0.60;0.10;;;28.10;99.90;;;;;;4963114;28;20179;-65
2021/07/25 11:53:16;;;;;;;0.97;0.87;;;27.80;99.90;;;;;;4964591;28;20784;-65
2021/07/25 11:55:41;;;;;;;0.50;0.20;;;27.90;99.90;;;;;;4964065;28;20734;-68
2021/07/25 11:58:14;;;;;;;0.90;0.50;;;27.80;99.90;;;;;;4965615;28;20463;-66
2021/07/25 12:00:39;;;;;;;1.00;0.93;;;28.00;99.90;;;;;;4965215;28;20172;-64
2021/07/25 12:03:08;;;;;;;0.50;0.40;;;28.10;71.50;;;;;;4963580;28;20442;-66
2021/07/25 12:05:34;;;;;;;29.67;2.73;;;28.30;1.00;;;;;;4966608;28;20220;-66
2021/07/25 12:08:12;;;;;;;0.50;0.20;;;28.50;1.00;;;;;;4968491;28;20440;-68
2021/07/25 12:10:37;;;;;;;0.67;0.57;;;28.60;1.00;;;;;;4958462;28;20769;-67
2021/07/25 12:13:04;;;;;;;1.77;0.70;;;28.20;1.00;;;;;;4957560;28;20434;-68
2021/07/25 12:15:31;;;;;;;0.83;0.73;;;28.00;34.10;;;;;;4957796;28;20180;-67
2021/07/25 12:17:57;;;;;;;0.50;0.13;;;27.90;1.00;;;;;;4966141;28;20496;-65
2021/07/25 12:20:33;;;;;;;0.60;0.50;;;28.20;6.30;;;;;;4965100;28;20438;-68
2021/07/25 12:23:09;;;;;;;4.00;3.70;;;28.30;1.00;;;;;;4949589;28;20513;-67
2021/07/25 12:25:55;;;;;;;1.80;1.47;;;28.30;1.00;;;;;;4951411;28;20474;-66
2021/07/25 12:28:22;;;;;;;0.87;0.50;;;28.10;1.00;;;;;;4963605;28;20446;-65
2021/07/25 12:30:53;;;;;;;0.50;0.20;;;27.90;21.50;;;;;;4968206;28;20474;-64
2021/07/25 12:33:24;;;;;;;0.50;0.20;;;28.10;20.50;;;;;;4968947;28;20791;-65
2021/07/25 12:35:50;;;;;;;0.50;0.20;;;28.50;1.00;;;;;;4965223;28;20450;-64
2021/07/25 12:38:17;;;;;;;0.57;0.30;;;29.00;1.00;;;;;;4963486;28;20732;-64
2021/07/25 12:40:53;;;;;;;0.80;0.40;;;29.60;1.00;;;;;;4964699;28;20448;-65
2021/07/25 12:43:27;;;;;;;1.07;0.90;;;29.50;1.00;;;;;;4964263;28;20514;-65
2021/07/25 12:46:02;;;;;;;0.60;0.30;;;29.30;1.00;;;;;;4966728;28;20466;-64
2021/07/25 12:48:28;;;;;;;1.70;1.60;;;29.70;1.00;;;;;;4947166;28;20431;-63
2021/07/25 12:53:35;;;;;;;0.50;0.20;;;30.40;1.00;;;;;;4965826;28;20439;-64
2021/07/25 12:56:03;;;;;;;0.47;0.13;;;30.20;1.00;;;;;;4964635;28;20432;-65
2021/07/25 12:58:34;;;;;;;0.50;0.20;;;30.30;1.00;;;;;;4968732;28;20428;-65
2021/07/25 13:03:52;;;;;;;0.70;0.40;;;29.90;1.00;;;;;;4966600;28;20423;-65
2021/07/25 13:06:38;;;;;;;0.60;0.50;;;30.00;1.00;;;;;;4967796;28;20474;-65